createdAt,value
2018-09-23T00:01:20.397Z,54.30
2018-09-23T00:03:50.119Z,54.40
2018-09-23T00:06:19.012Z,54.50
2018-09-23T00:08:47.560Z,54.50
2018-09-23T00:11:17.026Z,54.70
2018-09-23T00:13:45.622Z,54.90
2018-09-23T00:16:14.187Z,54.90
2018-09-23T00:18:42.692Z,55.00
2018-09-23T00:21:11.237Z,55.00
2018-09-23T00:23:39.742Z,55.10
2018-09-23T00:26:08.348Z,55.20
2018-09-23T00:28:36.899Z,55.40
2018-09-23T00:31:05.420Z,55.40
2018-09-23T00:33:33.931Z,55.40
2018-09-23T00:36:02.472Z,55.40
2018-09-23T00:38:30.895Z,55.40
2018-09-23T00:41:04.329Z,55.40
2018-09-23T00:43:32.872Z,55.30
2018-09-23T00:46:01.348Z,55.40
2018-09-23T00:48:30.600Z,56.10
2018-09-23T00:50:59.092Z,55.60
2018-09-23T00:53:27.856Z,55.50
2018-09-23T00:55:56.684Z,55.60
2018-09-23T00:58:25.318Z,55.60
2018-09-23T01:00:53.830Z,55.60
2018-09-23T01:03:22.236Z,55.60
2018-09-23T01:05:50.810Z,55.80
2018-09-23T01:08:20.152Z,55.80
2018-09-23T01:10:48.628Z,55.80
2018-09-23T01:13:17.766Z,55.70
2018-09-23T01:15:46.368Z,55.70
2018-09-23T01:18:15.157Z,55.70
2018-09-23T01:20:43.712Z,55.70
2018-09-23T01:23:12.144Z,55.60
2018-09-23T01:25:40.634Z,55.70
2018-09-23T01:28:11.101Z,55.60
2018-09-23T01:30:39.589Z,55.60
2018-09-23T01:33:08.065Z,55.50
2018-09-23T01:35:36.579Z,55.50
2018-09-23T01:38:05.257Z,55.50
2018-09-23T01:40:33.817Z,55.50
2018-09-23T01:43:02.325Z,55.50
2018-09-23T01:45:30.923Z,55.50
2018-09-23T01:47:59.449Z,55.50
2018-09-23T01:50:27.940Z,55.60
2018-09-23T01:52:56.437Z,55.50
2018-09-23T01:55:25.021Z,55.60
2018-09-23T01:57:53.541Z,55.50
2018-09-23T02:00:22.106Z,55.50
2018-09-23T02:02:50.636Z,55.50
2018-09-23T02:05:19.153Z,55.40
2018-09-23T02:07:47.653Z,55.40
2018-09-23T02:10:16.154Z,55.40
2018-09-23T02:12:45.618Z,55.40
2018-09-23T02:15:14.120Z,55.40
2018-09-23T02:17:42.600Z,55.30
2018-09-23T02:20:11.227Z,55.30
2018-09-23T02:22:39.698Z,55.30
2018-09-23T02:25:08.398Z,55.30
2018-09-23T02:27:36.957Z,55.30
2018-09-23T02:30:05.870Z,55.30
2018-09-23T02:32:34.358Z,55.40
2018-09-23T02:35:02.854Z,55.30
2018-09-23T02:37:31.327Z,55.30
2018-09-23T02:39:59.921Z,55.30
2018-09-23T02:42:28.402Z,55.30
2018-09-23T02:44:56.900Z,55.30
2018-09-23T02:47:25.409Z,55.40
2018-09-23T02:49:53.908Z,55.40
2018-09-23T02:52:22.361Z,55.40
2018-09-23T02:54:51.026Z,55.40
2018-09-23T02:57:19.534Z,55.50
2018-09-23T02:59:47.997Z,55.60
2018-09-23T03:02:16.471Z,55.70
2018-09-23T03:04:44.971Z,55.70
2018-09-23T03:07:14.097Z,55.80
2018-09-23T03:09:42.541Z,55.90
2018-09-23T03:12:11.064Z,55.90
2018-09-23T03:14:39.496Z,56.10
2018-09-23T03:17:07.957Z,56.10
2018-09-23T03:19:36.446Z,56.10
2018-09-23T03:22:04.903Z,56.10
2018-09-23T03:24:34.295Z,56.10
2018-09-23T03:27:02.822Z,56.30
2018-09-23T03:29:31.355Z,56.30
2018-09-23T03:31:59.788Z,56.30
2018-09-23T03:34:28.234Z,56.40
2018-09-23T03:36:56.836Z,56.40
2018-09-23T03:39:25.405Z,56.50
2018-09-23T03:41:53.910Z,56.70
2018-09-23T03:44:22.372Z,56.70
2018-09-23T03:46:50.983Z,56.80
2018-09-23T03:49:19.582Z,56.90
2018-09-23T03:51:48.318Z,57.00
2018-09-23T03:54:16.785Z,57.00
2018-09-23T03:56:46.323Z,57.00
2018-09-23T03:59:14.857Z,57.10
2018-09-23T04:01:43.336Z,57.10
2018-09-23T04:04:11.921Z,57.10
2018-09-23T04:06:40.386Z,57.00
2018-09-23T04:09:12.631Z,57.10
2018-09-23T04:11:41.309Z,57.00
2018-09-23T04:14:11.290Z,57.10
2018-09-23T04:16:41.354Z,57.10
2018-09-23T04:19:09.982Z,57.10
2018-09-23T04:21:38.444Z,57.00
2018-09-23T04:24:07.103Z,56.90
2018-09-23T04:26:35.715Z,57.10
2018-09-23T04:29:04.634Z,57.00
2018-09-23T04:31:33.201Z,56.80
2018-09-23T04:34:01.765Z,56.90
2018-09-23T04:36:30.312Z,56.80
2018-09-23T04:38:58.772Z,56.80
2018-09-23T04:41:27.371Z,56.80
2018-09-23T04:43:55.913Z,56.80
2018-09-23T04:46:24.436Z,56.80
2018-09-23T04:48:55.757Z,56.80
2018-09-23T04:51:24.345Z,56.80
2018-09-23T04:53:54.290Z,56.90
2018-09-23T04:56:22.929Z,57.00
2018-09-23T04:58:51.506Z,56.90
2018-09-23T05:01:20.089Z,56.60
2018-09-23T05:03:50.768Z,56.60
2018-09-23T05:06:19.796Z,56.60
2018-09-23T05:08:51.994Z,56.60
2018-09-23T05:11:20.975Z,56.50
2018-09-23T05:13:49.765Z,56.50
2018-09-23T05:16:19.397Z,56.50
2018-09-23T05:18:47.964Z,56.40
2018-09-23T05:21:16.930Z,56.40
2018-09-23T05:23:48.971Z,56.40
2018-09-23T05:26:17.692Z,56.40
2018-09-23T05:28:46.754Z,56.30
2018-09-23T05:31:15.577Z,56.30
2018-09-23T05:33:44.083Z,56.30
2018-09-23T05:36:15.438Z,56.30
2018-09-23T05:38:44.049Z,56.30
2018-09-23T05:41:18.145Z,56.20
2018-09-23T05:43:46.966Z,56.20
2018-09-23T05:46:15.572Z,56.10
2018-09-23T05:48:44.120Z,56.00
2018-09-23T05:51:12.770Z,56.10
2018-09-23T05:53:41.300Z,56.20
2018-09-23T05:56:09.905Z,56.10
2018-09-23T05:58:38.393Z,56.10
2018-09-23T06:01:07.386Z,56.10
2018-09-23T06:03:35.948Z,56.10
2018-09-23T06:08:48.921Z,56.10
2018-09-23T06:11:18.149Z,56.10
2018-09-23T06:13:46.620Z,56.00
2018-09-23T06:16:15.564Z,56.00
2018-09-23T06:18:44.345Z,56.10
2018-09-23T06:21:13.009Z,55.80
2018-09-23T06:23:41.820Z,55.70
2018-09-23T06:26:10.705Z,55.80
2018-09-23T06:28:39.292Z,55.70
2018-09-23T06:31:09.549Z,55.80
2018-09-23T06:36:20.867Z,55.70
2018-09-23T06:38:51.709Z,55.70
2018-09-23T06:41:21.805Z,55.50
2018-09-23T06:43:50.651Z,55.60
2018-09-23T06:46:19.424Z,55.50
2018-09-23T06:48:48.633Z,55.20
2018-09-23T06:51:17.492Z,55.20
2018-09-23T06:53:49.482Z,55.20
2018-09-23T06:56:18.169Z,55.30
2018-09-23T06:58:49.922Z,55.60
2018-09-23T07:01:25.150Z,55.00
2018-09-23T07:03:57.861Z,55.10
2018-09-23T07:06:28.642Z,55.20
2018-09-23T07:08:58.038Z,55.00
2018-09-23T07:11:32.190Z,55.00
2018-09-23T07:14:01.137Z,55.10
2018-09-23T07:16:40.304Z,55.00
2018-09-23T07:19:11.732Z,55.10
2018-09-23T07:21:41.768Z,55.00
2018-09-23T07:24:12.360Z,54.80
2018-09-23T07:26:41.762Z,54.60
2018-09-23T07:29:10.614Z,54.70
2018-09-23T07:31:39.209Z,54.50
2018-09-23T07:34:07.995Z,54.30
2018-09-23T07:36:36.577Z,54.30
2018-09-23T07:39:06.930Z,54.20
2018-09-23T07:41:42.799Z,54.00
2018-09-23T07:44:11.549Z,54.10
2018-09-23T07:46:41.269Z,54.10
2018-09-23T07:49:10.820Z,54.20
2018-09-23T07:51:39.935Z,54.10
2018-09-23T07:54:08.836Z,53.90
2018-09-23T07:56:37.521Z,53.90
2018-09-23T07:59:07.109Z,53.80
2018-09-23T08:01:35.813Z,54.00
2018-09-23T08:04:04.449Z,54.00
2018-09-23T08:06:33.081Z,54.00
2018-09-23T08:09:01.706Z,54.00
2018-09-23T08:11:30.401Z,53.90
2018-09-23T08:13:59.248Z,53.80
2018-09-23T08:16:27.424Z,54.00
2018-09-23T08:18:56.095Z,54.20
2018-09-23T08:21:25.862Z,54.40
2018-09-23T08:23:54.603Z,54.70
2018-09-23T08:26:23.196Z,54.80
2018-09-23T08:28:52.764Z,55.10
2018-09-23T08:31:22.378Z,54.90
2018-09-23T08:33:51.089Z,55.00
2018-09-23T08:36:20.051Z,55.10
2018-09-23T08:38:50.318Z,55.20
2018-09-23T08:41:19.126Z,55.30
2018-09-23T08:43:47.580Z,55.20
2018-09-23T08:46:17.695Z,55.20
2018-09-23T08:48:47.184Z,55.40
2018-09-23T08:51:15.793Z,55.70
2018-09-23T08:53:44.275Z,56.50
2018-09-23T08:56:12.829Z,56.10
2018-09-23T08:58:41.553Z,56.50
2018-09-23T09:01:12.195Z,56.70
2018-09-23T09:03:41.125Z,56.90
2018-09-23T09:06:10.119Z,57.10
2018-09-23T09:08:39.767Z,57.20
2018-09-23T09:11:17.463Z,57.10
2018-09-23T09:13:46.150Z,57.10
2018-09-23T09:16:18.046Z,57.10
2018-09-23T09:18:47.157Z,57.30
2018-09-23T09:21:16.134Z,56.70
2018-09-23T09:23:45.213Z,56.30
2018-09-23T09:26:18.188Z,56.60
2018-09-23T09:28:48.314Z,56.30
2018-09-23T09:31:17.280Z,56.20
2018-09-23T09:33:50.080Z,56.00
2018-09-23T09:36:18.786Z,55.80
2018-09-23T09:38:48.462Z,55.70
2018-09-23T09:41:17.335Z,55.60
2018-09-23T09:43:46.980Z,55.60
2018-09-23T09:46:16.003Z,55.40
2018-09-23T09:48:44.832Z,55.30
2018-09-23T09:51:14.967Z,55.20
2018-09-23T09:53:45.418Z,55.30
2018-09-23T09:56:14.305Z,55.60
2018-09-23T09:58:43.166Z,55.90
2018-09-23T10:01:12.380Z,55.20
2018-09-23T10:03:42.411Z,55.40
2018-09-23T10:06:12.777Z,55.30
2018-09-23T10:08:42.227Z,55.20
2018-09-23T10:11:15.383Z,55.10
2018-09-23T10:13:50.771Z,55.10
2018-09-23T10:16:38.087Z,55.10
2018-09-23T10:19:09.165Z,55.40
2018-09-23T10:21:51.953Z,55.60
2018-09-23T10:24:21.537Z,55.70
2018-09-23T10:26:50.446Z,55.50
2018-09-23T10:29:20.763Z,55.40
2018-09-23T10:31:53.577Z,55.70
2018-09-23T10:34:22.131Z,55.70
2018-09-23T10:36:50.894Z,55.70
2018-09-23T10:39:20.682Z,55.70
2018-09-23T10:41:50.121Z,55.80
2018-09-23T10:44:19.189Z,55.80
2018-09-23T10:46:49.430Z,55.70
2018-09-23T10:49:22.154Z,55.90
2018-09-23T10:51:59.478Z,56.00
2018-09-23T10:54:49.854Z,56.20
2018-09-23T10:57:18.745Z,55.80
2018-09-23T10:59:51.108Z,55.80
2018-09-23T11:02:19.798Z,55.80
2018-09-23T11:04:50.500Z,56.10
2018-09-23T11:07:19.271Z,56.50
2018-09-23T11:09:48.008Z,57.60
2018-09-23T11:15:18.831Z,57.50
2018-09-23T11:17:53.210Z,57.70
2018-09-23T11:20:21.795Z,57.90
2018-09-23T11:22:55.423Z,57.80
2018-09-23T11:25:32.063Z,58.10
2018-09-23T11:28:09.107Z,58.00
2018-09-23T11:30:41.852Z,58.30
2018-09-23T11:33:14.041Z,58.60
2018-09-23T11:35:43.907Z,59.00
2018-09-23T11:38:12.467Z,59.10
2018-09-23T11:40:42.177Z,59.40
2018-09-23T11:43:10.975Z,59.60
2018-09-23T11:45:39.751Z,59.60
2018-09-23T11:48:12.854Z,59.70
2018-09-23T11:50:43.531Z,59.80
2018-09-23T11:53:11.990Z,59.80
2018-09-23T11:55:40.498Z,59.90
2018-09-23T11:58:09.010Z,60.20
2018-09-23T12:00:37.672Z,60.40
2018-09-23T12:03:06.554Z,60.80
2018-09-23T12:05:35.145Z,61.00
2018-09-23T12:08:03.942Z,61.30
2018-09-23T12:10:37.515Z,61.70
2018-09-23T12:13:06.176Z,61.90
2018-09-23T12:15:35.008Z,62.30
2018-09-23T12:18:03.722Z,62.60
2018-09-23T12:20:32.255Z,62.90
2018-09-23T12:23:00.967Z,63.30
2018-09-23T12:25:29.826Z,63.50
2018-09-23T12:27:58.356Z,63.30
2018-09-23T12:30:32.895Z,63.40
2018-09-23T12:33:01.588Z,63.40
2018-09-23T12:35:30.329Z,63.50
2018-09-23T12:38:00.805Z,63.60
2018-09-23T12:40:31.249Z,63.80
2018-09-23T12:43:01.357Z,63.60
2018-09-23T12:45:32.989Z,63.60
2018-09-23T12:48:04.065Z,63.50
2018-09-23T12:50:33.115Z,63.50
2018-09-23T12:53:01.821Z,63.50
2018-09-23T12:55:30.504Z,63.50
2018-09-23T13:00:43.809Z,64.00
2018-09-23T13:03:12.739Z,64.00
2018-09-23T13:05:43.101Z,64.40
2018-09-23T13:08:12.306Z,64.60
2018-09-23T13:10:44.987Z,64.70
2018-09-23T13:13:18.371Z,64.80
2018-09-23T13:15:48.283Z,64.60
2018-09-23T13:18:17.178Z,64.70
2018-09-23T13:20:46.024Z,64.80
2018-09-23T13:23:14.996Z,64.80
2018-09-23T13:25:43.860Z,64.80
2018-09-23T13:28:14.884Z,64.70
2018-09-23T13:30:43.528Z,64.70
2018-09-23T13:33:12.178Z,64.80
2018-09-23T13:35:45.093Z,65.10
2018-09-23T13:38:15.277Z,66.30
2018-09-23T13:41:07.789Z,66.00
2018-09-23T13:43:44.331Z,66.10
2018-09-23T13:46:20.906Z,65.90
2018-09-23T13:52:50.255Z,66.70
2018-09-23T13:55:26.931Z,66.90
2018-09-23T13:57:59.892Z,66.90
2018-09-23T14:00:37.199Z,67.60
2018-09-23T14:03:05.921Z,67.80
2018-09-23T14:05:35.568Z,67.70
2018-09-23T14:08:11.561Z,68.30
2018-09-23T14:10:44.124Z,68.30
2018-09-23T14:13:12.847Z,68.80
2018-09-23T14:15:41.584Z,68.90
2018-09-23T14:18:10.322Z,69.40
2018-09-23T14:20:39.034Z,69.50
2018-09-23T14:23:09.178Z,69.70
2018-09-23T14:25:38.610Z,70.10
2018-09-23T14:28:07.355Z,70.30
2018-09-23T14:30:36.483Z,70.60
2018-09-23T14:36:42.561Z,71.90
2018-09-23T14:39:20.508Z,71.00
2018-09-23T14:41:49.352Z,71.50
2018-09-23T14:44:20.580Z,71.50
2018-09-23T14:46:49.506Z,71.70
2018-09-23T14:56:25.210Z,71.70
2018-09-23T14:59:07.832Z,72.00
2018-09-23T15:01:39.546Z,72.00
2018-09-23T15:04:08.541Z,71.90
2018-09-23T15:06:37.125Z,71.90
2018-09-23T15:09:08.153Z,71.90
2018-09-23T15:12:01.837Z,72.10
2018-09-23T15:14:31.049Z,72.10
2018-09-23T15:17:00.395Z,72.20
2018-09-23T15:19:28.929Z,72.30
2018-09-23T15:22:04.036Z,72.30
2018-09-23T15:24:33.437Z,72.70
2018-09-23T15:27:02.575Z,72.80
2018-09-23T15:29:31.419Z,73.00
2018-09-23T15:32:01.219Z,73.10
2018-09-23T15:34:32.992Z,73.50
2018-09-23T15:37:03.038Z,73.90
2018-09-23T15:39:31.719Z,73.90
2018-09-23T15:42:00.441Z,74.10
2018-09-23T15:44:29.119Z,74.40
2018-09-23T15:46:58.505Z,74.70
2018-09-23T15:49:27.461Z,74.90
2018-09-23T15:51:57.546Z,75.30
2018-09-23T15:54:26.537Z,75.40
2018-09-23T15:56:55.606Z,75.60
2018-09-23T15:59:24.946Z,75.70
2018-09-23T16:01:53.840Z,76.10
2018-09-23T16:04:26.726Z,75.90
2018-09-23T16:06:55.609Z,76.10
2018-09-23T16:09:24.542Z,76.30
2018-09-23T16:11:54.199Z,76.50
2018-09-23T16:14:23.179Z,76.90
2018-09-23T16:16:51.986Z,76.90
2018-09-23T16:19:20.659Z,77.10
2018-09-23T16:21:51.318Z,77.00
2018-09-23T16:24:19.840Z,77.20
2018-09-23T16:26:50.582Z,77.50
2018-09-23T16:29:19.492Z,77.90
2018-09-23T16:31:48.274Z,78.50
2018-09-23T16:34:16.876Z,78.90
2018-09-23T16:36:47.984Z,79.40
2018-09-23T16:39:16.782Z,80.00
2018-09-23T16:41:45.504Z,80.40
2018-09-23T16:44:14.061Z,80.70
2018-09-23T16:46:42.921Z,80.90
2018-09-23T16:49:12.536Z,81.10
2018-09-23T16:51:41.052Z,81.30
2018-09-23T16:54:09.535Z,81.40
2018-09-23T16:56:38.044Z,81.50
2018-09-23T16:59:06.697Z,81.70
2018-09-23T17:01:35.199Z,81.90
2018-09-23T17:04:03.760Z,82.10
2018-09-23T17:06:32.324Z,82.20
2018-09-23T17:09:01.546Z,82.20
2018-09-23T17:11:32.844Z,82.30
2018-09-23T17:14:03.304Z,82.50
2018-09-23T17:16:32.059Z,82.40
2018-09-23T17:19:01.015Z,82.40
2018-09-23T17:21:30.999Z,82.40
2018-09-23T17:27:37.769Z,82.70
2018-09-23T17:30:42.210Z,82.80
2018-09-23T17:33:25.429Z,82.50
2018-09-23T17:35:54.373Z,82.60
2018-09-23T17:38:22.897Z,82.30
2018-09-23T17:40:51.530Z,82.30
2018-09-23T17:43:20.189Z,82.30
2018-09-23T17:45:50.635Z,82.50
2018-09-23T17:48:22.195Z,83.00
2018-09-23T17:50:51.014Z,83.10
2018-09-23T17:53:24.955Z,83.00
2018-09-23T17:55:55.359Z,83.00
2018-09-23T17:58:25.564Z,83.20
2018-09-23T18:00:56.153Z,82.90
2018-09-23T18:03:33.534Z,82.90
2018-09-23T18:06:12.416Z,83.60
2018-09-23T18:11:40.345Z,83.30
2018-09-23T18:14:09.202Z,83.20
2018-09-23T18:16:46.228Z,83.40
2018-09-23T18:19:16.211Z,83.40
2018-09-23T18:21:45.486Z,83.40
2018-09-23T18:24:14.037Z,83.20
2018-09-23T18:26:44.358Z,82.60
2018-09-23T18:29:13.501Z,82.50
2018-09-23T18:31:42.093Z,82.90
2018-09-23T18:34:10.643Z,83.20
2018-09-23T18:36:39.328Z,83.50
2018-09-23T18:39:09.509Z,83.60
2018-09-23T18:41:38.233Z,83.80
2018-09-23T18:44:07.560Z,83.80
2018-09-23T18:46:36.324Z,83.60
2018-09-23T18:49:05.432Z,83.80
2018-09-23T18:51:34.823Z,84.10
2018-09-23T18:56:14.745Z,84.00
2018-09-23T18:58:43.647Z,84.00
2018-09-23T19:01:13.045Z,83.90
2018-09-23T19:03:42.987Z,84.40
2018-09-23T19:06:13.059Z,84.60
2018-09-23T19:08:42.669Z,84.90
2018-09-23T19:11:13.172Z,85.20
2018-09-23T19:13:51.983Z,85.40
2018-09-23T19:16:28.049Z,85.30
2018-09-23T19:18:59.569Z,85.40
2018-09-23T19:21:29.686Z,85.70
2018-09-23T19:26:57.129Z,86.00
2018-09-23T19:29:30.729Z,86.10
2018-09-23T19:32:04.029Z,86.30
2018-09-23T19:34:40.030Z,86.40
2018-09-23T19:37:12.966Z,86.00
2018-09-23T19:39:42.162Z,86.20
2018-09-23T19:42:26.521Z,85.80
2018-09-23T19:44:55.858Z,85.60
2018-09-23T19:47:25.081Z,85.40
2018-09-23T19:49:53.656Z,85.20
2018-09-23T19:52:24.060Z,85.10
2018-09-23T19:55:03.096Z,84.70
2018-09-23T19:57:36.630Z,84.80
2018-09-23T20:00:07.136Z,85.30
2018-09-23T20:02:38.188Z,85.30
2018-09-23T20:05:14.201Z,85.00
2018-09-23T20:07:45.300Z,84.80
2018-09-23T20:10:17.558Z,84.00
2018-09-23T20:12:46.806Z,84.20
2018-09-23T20:15:18.525Z,84.40
2018-09-23T20:17:51.009Z,84.20
2018-09-23T20:20:22.192Z,84.40
2018-09-23T20:22:55.495Z,84.40
2018-09-23T20:25:24.465Z,84.70
2018-09-23T20:27:53.009Z,84.90
2018-09-23T20:30:25.927Z,85.00
2018-09-23T20:33:21.277Z,85.20
2018-09-23T20:35:51.456Z,85.30
2018-09-23T20:38:21.174Z,85.40
2018-09-23T20:43:42.407Z,85.10
2018-09-23T20:46:44.105Z,85.20
2018-09-23T20:52:46.452Z,85.00
2018-09-23T20:58:13.097Z,85.20
2018-09-23T21:00:41.903Z,85.40
2018-09-23T21:03:10.446Z,85.40
2018-09-23T21:05:43.986Z,85.50
2018-09-23T21:12:00.011Z,85.40
2018-09-23T21:14:38.132Z,85.00
2018-09-23T21:17:06.882Z,84.80
2018-09-23T21:19:41.402Z,84.70
2018-09-23T21:22:11.254Z,84.40
2018-09-23T21:24:40.128Z,84.10
2018-09-23T21:27:09.038Z,84.20
2018-09-23T21:29:41.111Z,84.00
2018-09-23T21:32:22.027Z,84.10
2018-09-23T21:34:50.885Z,84.20
2018-09-23T21:37:23.476Z,84.40
2018-09-23T21:39:53.509Z,84.80
2018-09-23T21:42:33.723Z,84.70
2018-09-23T21:45:08.873Z,85.50
2018-09-23T21:47:42.893Z,85.50
2018-09-23T21:50:17.421Z,85.30
2018-09-23T21:52:46.221Z,85.20
2018-09-23T21:55:14.909Z,85.30
2018-09-23T21:57:50.967Z,85.20
2018-09-23T22:00:20.697Z,85.20
2018-09-23T22:02:49.785Z,85.50
2018-09-23T22:05:19.490Z,85.70
2018-09-23T22:07:48.518Z,85.90
2018-09-23T22:10:17.964Z,85.80
2018-09-23T22:12:48.514Z,86.10
2018-09-23T22:15:24.446Z,85.70
2018-09-23T22:20:42.060Z,85.90
2018-09-23T22:23:10.557Z,85.60
2018-09-23T22:25:39.048Z,85.60
2018-09-23T22:28:07.620Z,85.70
2018-09-23T22:30:36.079Z,85.80
2018-09-23T22:33:04.544Z,86.00
2018-09-23T22:35:33.051Z,86.00
2018-09-23T22:38:01.565Z,86.00
2018-09-23T22:40:30.636Z,86.10
2018-09-23T22:42:59.875Z,86.30
2018-09-23T22:45:29.483Z,86.50
2018-09-23T22:47:58.758Z,86.50
2018-09-23T22:50:28.759Z,86.50
2018-09-23T22:52:58.168Z,86.40
2018-09-23T22:55:28.123Z,86.50
2018-09-23T22:57:57.204Z,86.30
2018-09-23T23:00:25.789Z,86.30
2018-09-23T23:02:54.849Z,86.20
2018-09-23T23:05:23.640Z,86.30
2018-09-23T23:07:52.293Z,86.20
2018-09-23T23:10:20.965Z,86.30
2018-09-23T23:12:49.443Z,86.30
2018-09-23T23:15:18.037Z,86.40
2018-09-23T23:17:47.543Z,86.50
2018-09-23T23:20:16.071Z,86.60
2018-09-23T23:22:44.544Z,86.70
2018-09-23T23:25:12.996Z,86.50
2018-09-23T23:27:41.590Z,86.70
2018-09-23T23:30:10.086Z,86.80
2018-09-23T23:32:38.584Z,87.10
2018-09-23T23:35:07.192Z,87.00
2018-09-23T23:37:35.682Z,86.90
2018-09-23T23:40:08.286Z,86.90
2018-09-23T23:42:36.758Z,86.90
2018-09-23T23:45:05.369Z,86.80
2018-09-23T23:47:34.401Z,87.00
2018-09-23T23:50:02.975Z,87.00
2018-09-23T23:52:31.442Z,87.00
2018-09-23T23:54:59.904Z,87.00
2018-09-23T23:57:28.328Z,86.70
2018-09-23T23:59:56.799Z,86.70
